sensor_id;sensor_type;location;lat;lon;timestamp;pressure;altitude;pressure_sealevel;temperature;humidity
65384;BME280;51986;52.788;41.368;2023-05-09T00:00:52;100548.75;;;4.64;41.42
65384;BME280;51986;52.788;41.368;2023-05-09T00:03:19;100565.00;;;4.70;40.81
65384;BME280;51986;52.788;41.368;2023-05-09T00:05:46;100558.44;;;4.63;41.10
65384;BME280;51986;52.788;41.368;2023-05-09T00:08:13;100563.53;;;4.60;40.68
65384;BME280;51986;52.788;41.368;2023-05-09T00:10:40;100544.59;;;4.63;40.83
65384;BME280;51986;52.788;41.368;2023-05-09T00:13:06;100542.84;;;4.55;40.66
65384;BME280;51986;52.788;41.368;2023-05-09T00:15:33;100563.28;;;4.74;41.36
65384;BME280;51986;52.788;41.368;2023-05-09T00:18:00;100563.69;;;4.97;40.31
65384;BME280;51986;52.788;41.368;2023-05-09T00:20:27;100570.19;;;4.90;40.14
65384;BME280;51986;52.788;41.368;2023-05-09T00:22:54;100571.28;;;4.89;39.95
65384;BME280;51986;52.788;41.368;2023-05-09T00:25:21;100577.75;;;4.92;40.39
65384;BME280;51986;52.788;41.368;2023-05-09T00:27:48;100579.13;;;4.89;40.52
65384;BME280;51986;52.788;41.368;2023-05-09T00:30:15;100566.19;;;4.72;40.79
65384;BME280;51986;52.788;41.368;2023-05-09T00:32:42;100573.47;;;4.87;40.49
65384;BME280;51986;52.788;41.368;2023-05-09T00:35:09;100568.72;;;5.02;40.13
65384;BME280;51986;52.788;41.368;2023-05-09T00:37:36;100528.34;;;4.78;39.83
65384;BME280;51986;52.788;41.368;2023-05-09T00:40:04;100569.03;;;5.00;39.70
65384;BME280;51986;52.788;41.368;2023-05-09T00:42:32;100571.28;;;4.89;40.09
65384;BME280;51986;52.788;41.368;2023-05-09T00:44:59;100575.72;;;5.10;40.20
65384;BME280;51986;52.788;41.368;2023-05-09T00:47:29;100567.75;;;5.06;39.54
65384;BME280;51986;52.788;41.368;2023-05-09T00:49:56;100561.44;;;5.07;39.56
65384;BME280;51986;52.788;41.368;2023-05-09T00:52:24;100571.38;;;5.14;39.54
65384;BME280;51986;52.788;41.368;2023-05-09T00:54:53;100575.72;;;5.10;39.82
65384;BME280;51986;52.788;41.368;2023-05-09T00:57:21;100571.03;;;5.15;39.79
65384;BME280;51986;52.788;41.368;2023-05-09T00:59:48;100583.75;;;5.05;39.87
65384;BME280;51986;52.788;41.368;2023-05-09T01:02:18;100584.84;;;5.04;39.86
65384;BME280;51986;52.788;41.368;2023-05-09T01:04:46;100575.50;;;5.15;39.73
65384;BME280;51986;52.788;41.368;2023-05-09T01:12:38;100570.78;;;4.75;41.00
65384;BME280;51986;52.788;41.368;2023-05-09T01:17:41;100586.34;;;4.92;40.36
65384;BME280;51986;52.788;41.368;2023-05-09T01:20:23;100567.34;;;4.83;40.14
65384;BME280;51986;52.788;41.368;2023-05-09T01:31:15;100587.34;;;5.00;40.27
65384;BME280;51986;52.788;41.368;2023-05-09T01:33:45;100591.81;;;5.00;40.48
65384;BME280;51986;52.788;41.368;2023-05-09T01:36:16;100595.38;;;4.95;40.00
65384;BME280;51986;52.788;41.368;2023-05-09T01:38:45;100588.00;;;4.97;40.72
65384;BME280;51986;52.788;41.368;2023-05-09T01:41:15;100586.44;;;4.96;40.39
65384;BME280;51986;52.788;41.368;2023-05-09T01:43:45;100591.56;;;4.92;40.41
65384;BME280;51986;52.788;41.368;2023-05-09T01:46:16;100581.13;;;4.92;40.51
65384;BME280;51986;52.788;41.368;2023-05-09T01:48:44;100623.19;;;5.00;40.97
65384;BME280;51986;52.788;41.368;2023-05-09T01:51:13;100614.16;;;4.97;40.75
65384;BME280;51986;52.788;41.368;2023-05-09T01:53:42;100589.59;;;4.89;40.87
65384;BME280;51986;52.788;41.368;2023-05-09T01:56:11;100591.47;;;5.01;40.87
65384;BME280;51986;52.788;41.368;2023-05-09T01:58:39;100609.34;;;4.99;40.85
65384;BME280;51986;52.788;41.368;2023-05-09T02:01:07;100597.28;;;5.07;40.45
65384;BME280;51986;52.788;41.368;2023-05-09T02:03:36;100594.28;;;4.96;41.19
65384;BME280;51986;52.788;41.368;2023-05-09T02:06:05;100621.47;;;5.04;40.68
65384;BME280;51986;52.788;41.368;2023-05-09T02:08:33;100610.94;;;4.91;41.17
65384;BME280;51986;52.788;41.368;2023-05-09T02:11:00;100620.03;;;4.73;41.27
65384;BME280;51986;52.788;41.368;2023-05-09T02:13:28;100621.41;;;4.91;41.12
65384;BME280;51986;52.788;41.368;2023-05-09T02:15:56;100600.28;;;4.97;41.14
65384;BME280;51986;52.788;41.368;2023-05-09T02:18:23;100608.38;;;5.04;40.94
65384;BME280;51986;52.788;41.368;2023-05-09T02:20:49;100616.28;;;5.16;41.09
65384;BME280;51986;52.788;41.368;2023-05-09T02:23:16;100613.81;;;5.32;40.83
65384;BME280;51986;52.788;41.368;2023-05-09T02:25:45;100608.72;;;5.35;40.24
65384;BME280;51986;52.788;41.368;2023-05-09T02:28:12;100624.88;;;5.50;40.25
65384;BME280;51986;52.788;41.368;2023-05-09T02:30:42;100613.94;;;5.35;40.62
65384;BME280;51986;52.788;41.368;2023-05-09T02:33:11;100594.78;;;5.56;40.18
65384;BME280;51986;52.788;41.368;2023-05-09T02:35:41;100631.13;;;5.82;40.00
65384;BME280;51986;52.788;41.368;2023-05-09T02:38:11;100604.50;;;6.04;39.78
65384;BME280;51986;52.788;41.368;2023-05-09T02:40:41;100593.69;;;6.06;39.55
65384;BME280;51986;52.788;41.368;2023-05-09T02:43:09;100602.97;;;6.15;39.98
65384;BME280;51986;52.788;41.368;2023-05-09T02:45:36;100626.88;;;6.38;39.10
65384;BME280;51986;52.788;41.368;2023-05-09T02:48:03;100590.56;;;6.53;38.46
65384;BME280;51986;52.788;41.368;2023-05-09T02:50:34;100618.47;;;6.73;38.47
65384;BME280;51986;52.788;41.368;2023-05-09T02:53:00;100589.28;;;6.87;37.70
65384;BME280;51986;52.788;41.368;2023-05-09T02:55:27;100617.75;;;7.92;36.87
65384;BME280;51986;52.788;41.368;2023-05-09T02:57:54;100600.09;;;9.44;33.97
65384;BME280;51986;52.788;41.368;2023-05-09T03:00:39;100609.06;;;10.72;31.50
65384;BME280;51986;52.788;41.368;2023-05-09T03:03:06;100602.25;;;11.93;29.22
65384;BME280;51986;52.788;41.368;2023-05-09T03:05:33;100592.41;;;12.81;28.25
65384;BME280;51986;52.788;41.368;2023-05-09T03:08:00;100607.25;;;13.03;27.43
65384;BME280;51986;52.788;41.368;2023-05-09T03:10:27;100596.22;;;14.23;25.91
65384;BME280;51986;52.788;41.368;2023-05-09T03:12:54;100617.78;;;14.43;25.94
65384;BME280;51986;52.788;41.368;2023-05-09T03:15:22;100610.16;;;15.18;24.42
65384;BME280;51986;52.788;41.368;2023-05-09T03:17:49;100596.75;;;15.81;23.69
65384;BME280;51986;52.788;41.368;2023-05-09T03:20:16;100600.84;;;15.89;23.22
65384;BME280;51986;52.788;41.368;2023-05-09T03:22:43;100604.66;;;16.22;22.86
65384;BME280;51986;52.788;41.368;2023-05-09T03:25:11;100613.28;;;16.67;22.27
65384;BME280;51986;52.788;41.368;2023-05-09T03:27:38;100616.78;;;16.91;21.49
65384;BME280;51986;52.788;41.368;2023-05-09T03:30:09;100644.47;;;17.28;21.46
65384;BME280;51986;52.788;41.368;2023-05-09T03:32:37;100614.19;;;17.11;20.86
65384;BME280;51986;52.788;41.368;2023-05-09T03:35:04;100619.00;;;18.14;20.37
65384;BME280;51986;52.788;41.368;2023-05-09T03:37:32;100625.66;;;18.62;20.11
65384;BME280;51986;52.788;41.368;2023-05-09T03:39:59;100612.63;;;19.00;19.58
65384;BME280;51986;52.788;41.368;2023-05-09T03:42:26;100624.69;;;17.72;20.64
65384;BME280;51986;52.788;41.368;2023-05-09T03:44:57;100617.25;;;17.60;21.20
65384;BME280;51986;52.788;41.368;2023-05-09T03:47:25;100634.72;;;16.87;21.88
65384;BME280;51986;52.788;41.368;2023-05-09T03:49:52;100627.59;;;16.81;21.52
65384;BME280;51986;52.788;41.368;2023-05-09T03:52:21;100629.59;;;16.42;21.72
65384;BME280;51986;52.788;41.368;2023-05-09T03:54:48;100622.34;;;15.67;22.70
65384;BME280;51986;52.788;41.368;2023-05-09T03:57:16;100645.41;;;15.33;23.07
65384;BME280;51986;52.788;41.368;2023-05-09T03:59:45;100616.75;;;16.34;22.46
65384;BME280;51986;52.788;41.368;2023-05-09T04:02:13;100637.34;;;15.43;23.02
65384;BME280;51986;52.788;41.368;2023-05-09T04:04:42;100611.63;;;15.30;23.61
65384;BME280;51986;52.788;41.368;2023-05-09T04:07:09;100652.69;;;15.74;23.60
65384;BME280;51986;52.788;41.368;2023-05-09T04:09:36;100626.25;;;16.35;22.88
65384;BME280;51986;52.788;41.368;2023-05-09T04:12:03;100659.13;;;15.28;23.45
65384;BME280;51986;52.788;41.368;2023-05-09T04:14:31;100632.63;;;15.06;24.15
65384;BME280;51986;52.788;41.368;2023-05-09T04:16:58;100628.56;;;14.87;24.11
65384;BME280;51986;52.788;41.368;2023-05-09T04:19:25;100645.16;;;14.22;25.19
65384;BME280;51986;52.788;41.368;2023-05-09T04:21:52;100647.78;;;15.13;24.49
65384;BME280;51986;52.788;41.368;2023-05-09T04:24:19;100670.53;;;15.17;24.35
65384;BME280;51986;52.788;41.368;2023-05-09T04:26:47;100645.81;;;15.21;23.97
65384;BME280;51986;52.788;41.368;2023-05-09T04:29:18;100657.28;;;13.94;25.13
65384;BME280;51986;52.788;41.368;2023-05-09T04:31:50;100663.31;;;14.09;24.92
65384;BME280;51986;52.788;41.368;2023-05-09T04:34:18;100627.75;;;13.67;25.17
65384;BME280;51986;52.788;41.368;2023-05-09T04:36:45;100623.91;;;13.97;25.80
65384;BME280;51986;52.788;41.368;2023-05-09T04:39:31;100628.84;;;13.95;25.14
65384;BME280;51986;52.788;41.368;2023-05-09T04:42:04;100643.63;;;13.49;25.31
65384;BME280;51986;52.788;41.368;2023-05-09T04:44:31;100634.53;;;13.29;25.90
65384;BME280;51986;52.788;41.368;2023-05-09T04:46:59;100621.66;;;14.17;25.46
65384;BME280;51986;52.788;41.368;2023-05-09T04:49:26;100632.66;;;13.90;25.37
65384;BME280;51986;52.788;41.368;2023-05-09T04:51:53;100633.00;;;13.92;25.55
65384;BME280;51986;52.788;41.368;2023-05-09T04:54:20;100613.69;;;14.17;24.22
65384;BME280;51986;52.788;41.368;2023-05-09T04:56:50;100620.50;;;13.96;24.17
65384;BME280;51986;52.788;41.368;2023-05-09T04:59:19;100633.03;;;13.88;24.21
65384;BME280;51986;52.788;41.368;2023-05-09T05:01:46;100629.91;;;14.44;23.92
65384;BME280;51986;52.788;41.368;2023-05-09T05:04:13;100651.19;;;14.26;23.62
65384;BME280;51986;52.788;41.368;2023-05-09T05:06:40;100650.72;;;14.52;24.30
65384;BME280;51986;52.788;41.368;2023-05-09T05:09:08;100630.53;;;14.76;24.26
65384;BME280;51986;52.788;41.368;2023-05-09T05:11:34;100633.78;;;14.14;24.40
65384;BME280;51986;52.788;41.368;2023-05-09T05:14:03;100626.56;;;15.02;22.93
65384;BME280;51986;52.788;41.368;2023-05-09T05:16:30;100638.81;;;14.85;23.46
65384;BME280;51986;52.788;41.368;2023-05-09T05:18:58;100631.19;;;14.91;22.66
65384;BME280;51986;52.788;41.368;2023-05-09T05:21:25;100654.00;;;14.85;21.86
65384;BME280;51986;52.788;41.368;2023-05-09T05:23:52;100629.59;;;15.08;21.93
65384;BME280;51986;52.788;41.368;2023-05-09T05:26:19;100641.66;;;15.20;21.43
65384;BME280;51986;52.788;41.368;2023-05-09T05:28:47;100612.59;;;15.50;21.21
65384;BME280;51986;52.788;41.368;2023-05-09T05:31:14;100625.31;;;15.73;20.68
65384;BME280;51986;52.788;41.368;2023-05-09T05:33:41;100621.31;;;14.91;21.58
65384;BME280;51986;52.788;41.368;2023-05-09T05:36:08;100613.16;;;15.27;21.17
65384;BME280;51986;52.788;41.368;2023-05-09T05:38:35;100609.88;;;15.05;20.59
65384;BME280;51986;52.788;41.368;2023-05-09T05:41:02;100616.75;;;14.96;20.36
65384;BME280;51986;52.788;41.368;2023-05-09T05:43:29;100602.53;;;14.57;20.73
65384;BME280;51986;52.788;41.368;2023-05-09T05:45:56;100629.97;;;14.19;21.27
65384;BME280;51986;52.788;41.368;2023-05-09T05:48:26;100628.13;;;14.96;20.39
65384;BME280;51986;52.788;41.368;2023-05-09T05:50:53;100619.66;;;15.15;19.38
65384;BME280;51986;52.788;41.368;2023-05-09T05:53:24;100604.38;;;14.67;20.07
65384;BME280;51986;52.788;41.368;2023-05-09T05:55:51;100614.38;;;15.12;19.69
65384;BME280;51986;52.788;41.368;2023-05-09T05:58:20;100633.56;;;15.86;19.27
65384;BME280;51986;52.788;41.368;2023-05-09T06:00:51;100621.16;;;15.16;20.17
65384;BME280;51986;52.788;41.368;2023-05-09T06:03:18;100594.97;;;14.49;18.98
65384;BME280;51986;52.788;41.368;2023-05-09T06:05:49;100599.13;;;14.60;19.43
65384;BME280;51986;52.788;41.368;2023-05-09T06:11:02;100610.25;;;14.27;20.18
65384;BME280;51986;52.788;41.368;2023-05-09T06:13:29;100612.84;;;14.41;19.35
65384;BME280;51986;52.788;41.368;2023-05-09T06:16:01;100600.75;;;14.26;19.86
65384;BME280;51986;52.788;41.368;2023-05-09T06:18:44;100586.84;;;13.29;19.22
65384;BME280;51986;52.788;41.368;2023-05-09T06:21:11;100592.53;;;13.74;18.77
65384;BME280;51986;52.788;41.368;2023-05-09T06:23:38;100595.84;;;14.10;19.40
65384;BME280;51986;52.788;41.368;2023-05-09T06:26:23;100600.06;;;13.11;20.39
65384;BME280;51986;52.788;41.368;2023-05-09T06:28:50;100587.91;;;13.99;19.69
65384;BME280;51986;52.788;41.368;2023-05-09T06:31:17;100603.06;;;14.17;19.70
65384;BME280;51986;52.788;41.368;2023-05-09T06:33:43;100585.22;;;14.28;18.48
65384;BME280;51986;52.788;41.368;2023-05-09T06:36:11;100595.44;;;14.29;18.77
65384;BME280;51986;52.788;41.368;2023-05-09T06:38:38;100591.00;;;14.89;19.41
65384;BME280;51986;52.788;41.368;2023-05-09T06:41:04;100576.66;;;14.72;18.79
65384;BME280;51986;52.788;41.368;2023-05-09T06:43:31;100574.09;;;14.54;18.32
65384;BME280;51986;52.788;41.368;2023-05-09T06:45:58;100586.25;;;14.55;19.12
65384;BME280;51986;52.788;41.368;2023-05-09T06:48:25;100586.09;;;13.78;19.96
65384;BME280;51986;52.788;41.368;2023-05-09T06:50:52;100595.72;;;14.53;19.43
65384;BME280;51986;52.788;41.368;2023-05-09T06:53:19;100551.19;;;13.87;19.55
65384;BME280;51986;52.788;41.368;2023-05-09T06:55:46;100558.66;;;14.31;19.62
65384;BME280;51986;52.788;41.368;2023-05-09T06:58:13;100566.63;;;14.28;19.67
65384;BME280;51986;52.788;41.368;2023-05-09T07:00:40;100582.84;;;14.51;19.32
65384;BME280;51986;52.788;41.368;2023-05-09T07:03:07;100577.00;;;13.61;20.44
65384;BME280;51986;52.788;41.368;2023-05-09T07:05:34;100583.41;;;13.68;20.18
65384;BME280;51986;52.788;41.368;2023-05-09T07:08:01;100569.63;;;14.33;19.18
65384;BME280;51986;52.788;41.368;2023-05-09T07:10:28;100540.66;;;13.55;19.70
65384;BME280;51986;52.788;41.368;2023-05-09T07:12:56;100565.94;;;13.95;20.72
65384;BME280;51986;52.788;41.368;2023-05-09T07:15:23;100542.81;;;13.99;20.08
65384;BME280;51986;52.788;41.368;2023-05-09T07:18:07;100559.47;;;14.91;19.67
65384;BME280;51986;52.788;41.368;2023-05-09T07:20:34;100558.06;;;13.74;20.28
65384;BME280;51986;52.788;41.368;2023-05-09T07:23:04;100565.19;;;13.95;19.81
65384;BME280;51986;52.788;41.368;2023-05-09T07:25:31;100563.53;;;14.44;20.22
65384;BME280;51986;52.788;41.368;2023-05-09T07:27:58;100555.84;;;14.63;20.08
65384;BME280;51986;52.788;41.368;2023-05-09T07:30:25;100545.22;;;14.63;20.00
65384;BME280;51986;52.788;41.368;2023-05-09T07:32:52;100540.97;;;14.73;19.99
65384;BME280;51986;52.788;41.368;2023-05-09T07:35:19;100550.97;;;15.10;19.82
65384;BME280;51986;52.788;41.368;2023-05-09T07:37:46;100540.44;;;14.30;20.12
65384;BME280;51986;52.788;41.368;2023-05-09T07:40:15;100537.31;;;14.53;20.05
65384;BME280;51986;52.788;41.368;2023-05-09T07:42:42;100537.22;;;14.71;19.66
65384;BME280;51986;52.788;41.368;2023-05-09T07:45:09;100540.94;;;14.84;19.88
65384;BME280;51986;52.788;41.368;2023-05-09T07:47:36;100533.63;;;14.29;21.05
65384;BME280;51986;52.788;41.368;2023-05-09T07:50:04;100533.31;;;14.05;20.88
65384;BME280;51986;52.788;41.368;2023-05-09T07:55:17;100524.22;;;15.35;19.75
65384;BME280;51986;52.788;41.368;2023-05-09T07:57:44;100506.28;;;14.39;19.98
65384;BME280;51986;52.788;41.368;2023-05-09T08:00:11;100523.16;;;15.26;19.58
65384;BME280;51986;52.788;41.368;2023-05-09T08:02:38;100521.38;;;16.25;18.60
65384;BME280;51986;52.788;41.368;2023-05-09T08:05:06;100517.53;;;15.61;18.87
65384;BME280;51986;52.788;41.368;2023-05-09T08:07:33;100510.00;;;16.21;18.52
65384;BME280;51986;52.788;41.368;2023-05-09T08:10:00;100508.22;;;16.68;18.42
65384;BME280;51986;52.788;41.368;2023-05-09T08:12:27;100507.44;;;16.14;18.00
65384;BME280;51986;52.788;41.368;2023-05-09T08:14:55;100506.16;;;15.57;19.21
65384;BME280;51986;52.788;41.368;2023-05-09T08:17:25;100503.09;;;15.59;19.66
65384;BME280;51986;52.788;41.368;2023-05-09T08:20:11;100517.72;;;15.78;19.21
65384;BME280;51986;52.788;41.368;2023-05-09T08:22:39;100484.03;;;15.67;18.68
65384;BME280;51986;52.788;41.368;2023-05-09T08:25:09;100477.38;;;15.83;18.27
65384;BME280;51986;52.788;41.368;2023-05-09T08:27:37;100504.44;;;16.42;18.19
65384;BME280;51986;52.788;41.368;2023-05-09T08:30:05;100492.47;;;15.93;17.72
65384;BME280;51986;52.788;41.368;2023-05-09T08:32:32;100493.94;;;15.63;18.57
65384;BME280;51986;52.788;41.368;2023-05-09T08:34:59;100492.03;;;15.26;17.80
65384;BME280;51986;52.788;41.368;2023-05-09T08:37:26;100496.16;;;15.68;17.94
65384;BME280;51986;52.788;41.368;2023-05-09T08:39:53;100484.97;;;15.05;17.73
65384;BME280;51986;52.788;41.368;2023-05-09T08:42:21;100519.31;;;14.78;18.30
65384;BME280;51986;52.788;41.368;2023-05-09T08:44:51;100513.56;;;14.87;18.64
65384;BME280;51986;52.788;41.368;2023-05-09T08:47:19;100497.78;;;13.81;19.17
65384;BME280;51986;52.788;41.368;2023-05-09T08:49:47;100506.78;;;14.12;18.78
65384;BME280;51986;52.788;41.368;2023-05-09T08:52:34;100489.00;;;15.96;18.01
65384;BME280;51986;52.788;41.368;2023-05-09T08:55:02;100481.03;;;15.62;18.02
65384;BME280;51986;52.788;41.368;2023-05-09T08:57:31;100454.00;;;15.33;17.88
65384;BME280;51986;52.788;41.368;2023-05-09T09:00:18;100467.72;;;14.79;18.89
65384;BME280;51986;52.788;41.368;2023-05-09T09:02:47;100470.31;;;14.90;19.55
65384;BME280;51986;52.788;41.368;2023-05-09T09:05:14;100458.19;;;14.85;19.15
65384;BME280;51986;52.788;41.368;2023-05-09T09:08:02;100461.19;;;14.87;19.21
65384;BME280;51986;52.788;41.368;2023-05-09T09:10:31;100457.69;;;15.77;18.80
65384;BME280;51986;52.788;41.368;2023-05-09T09:12:59;100452.44;;;15.69;18.17
65384;BME280;51986;52.788;41.368;2023-05-09T09:15:29;100439.94;;;15.97;17.72
65384;BME280;51986;52.788;41.368;2023-05-09T09:18:07;100443.31;;;16.32;17.84
65384;BME280;51986;52.788;41.368;2023-05-09T09:20:39;100468.06;;;15.30;18.75
65384;BME280;51986;52.788;41.368;2023-05-09T09:23:08;100464.44;;;14.64;19.56
65384;BME280;51986;52.788;41.368;2023-05-09T09:25:37;100432.59;;;15.02;19.12
65384;BME280;51986;52.788;41.368;2023-05-09T09:28:23;100441.16;;;15.21;19.33
65384;BME280;51986;52.788;41.368;2023-05-09T09:30:50;100453.50;;;15.00;18.61
65384;BME280;51986;52.788;41.368;2023-05-09T09:33:21;100450.31;;;14.75;19.13
65384;BME280;51986;52.788;41.368;2023-05-09T09:35:53;100452.06;;;15.37;18.50
65384;BME280;51986;52.788;41.368;2023-05-09T09:41:07;100437.31;;;16.28;18.53
65384;BME280;51986;52.788;41.368;2023-05-09T09:43:34;100449.28;;;16.90;17.67
65384;BME280;51986;52.788;41.368;2023-05-09T09:46:04;100434.84;;;16.64;16.82
65384;BME280;51986;52.788;41.368;2023-05-09T09:48:33;100403.81;;;16.77;16.92
65384;BME280;51986;52.788;41.368;2023-05-09T09:51:08;100416.69;;;17.02;17.06
65384;BME280;51986;52.788;41.368;2023-05-09T09:53:41;100422.44;;;17.01;16.88
65384;BME280;51986;52.788;41.368;2023-05-09T09:56:09;100435.03;;;15.96;17.60
65384;BME280;51986;52.788;41.368;2023-05-09T09:58:36;100410.69;;;14.91;18.80
65384;BME280;51986;52.788;41.368;2023-05-09T10:01:08;100442.81;;;14.62;18.30
65384;BME280;51986;52.788;41.368;2023-05-09T10:03:40;100443.34;;;14.88;18.19
65384;BME280;51986;52.788;41.368;2023-05-09T10:06:14;100426.69;;;15.29;17.56
65384;BME280;51986;52.788;41.368;2023-05-09T10:08:44;100431.16;;;15.35;17.84
65384;BME280;51986;52.788;41.368;2023-05-09T10:11:11;100418.72;;;15.29;19.05
65384;BME280;51986;52.788;41.368;2023-05-09T10:13:38;100438.09;;;15.26;18.46
65384;BME280;51986;52.788;41.368;2023-05-09T10:16:07;100405.63;;;15.45;17.73
65384;BME280;51986;52.788;41.368;2023-05-09T10:18:35;100413.03;;;15.91;17.07
65384;BME280;51986;52.788;41.368;2023-05-09T10:21:03;100422.50;;;15.65;17.56
65384;BME280;51986;52.788;41.368;2023-05-09T10:23:36;100412.88;;;15.75;18.50
65384;BME280;51986;52.788;41.368;2023-05-09T10:28:34;100402.16;;;16.09;17.85
65384;BME280;51986;52.788;41.368;2023-05-09T10:31:21;100420.81;;;16.36;17.32
65384;BME280;51986;52.788;41.368;2023-05-09T10:33:51;100406.00;;;16.35;17.69
65384;BME280;51986;52.788;41.368;2023-05-09T10:36:19;100408.22;;;17.07;18.14
65384;BME280;51986;52.788;41.368;2023-05-09T10:38:52;100400.94;;;17.71;18.16
65384;BME280;51986;52.788;41.368;2023-05-09T10:41:20;100416.22;;;17.31;17.24
65384;BME280;51986;52.788;41.368;2023-05-09T10:43:48;100396.72;;;17.34;17.24
65384;BME280;51986;52.788;41.368;2023-05-09T10:46:15;100388.34;;;16.68;17.25
65384;BME280;51986;52.788;41.368;2023-05-09T10:48:42;100384.00;;;16.04;17.68
65384;BME280;51986;52.788;41.368;2023-05-09T10:51:11;100387.53;;;16.48;17.61
65384;BME280;51986;52.788;41.368;2023-05-09T10:53:47;100383.16;;;16.61;17.29
65384;BME280;51986;52.788;41.368;2023-05-09T10:56:34;100405.25;;;16.35;18.20
65384;BME280;51986;52.788;41.368;2023-05-09T10:59:01;100400.94;;;15.87;17.88
65384;BME280;51986;52.788;41.368;2023-05-09T11:01:36;100394.59;;;16.58;17.84
65384;BME280;51986;52.788;41.368;2023-05-09T11:04:11;100390.06;;;16.55;17.05
65384;BME280;51986;52.788;41.368;2023-05-09T11:09:23;100379.78;;;17.24;17.54
65384;BME280;51986;52.788;41.368;2023-05-09T11:11:53;100372.03;;;17.30;16.86
65384;BME280;51986;52.788;41.368;2023-05-09T11:14:42;100366.59;;;16.93;17.21
65384;BME280;51986;52.788;41.368;2023-05-09T11:17:11;100375.78;;;16.45;17.65
65384;BME280;51986;52.788;41.368;2023-05-09T11:22:27;100362.25;;;16.80;17.35
65384;BME280;51986;52.788;41.368;2023-05-09T11:27:26;100364.00;;;15.92;18.38
65384;BME280;51986;52.788;41.368;2023-05-09T11:29:58;100342.53;;;15.49;18.64
65384;BME280;51986;52.788;41.368;2023-05-09T11:32:31;100365.84;;;15.38;18.66
65384;BME280;51986;52.788;41.368;2023-05-09T11:35:24;100358.31;;;15.90;17.89
65384;BME280;51986;52.788;41.368;2023-05-09T11:38:04;100362.41;;;16.73;17.79
65384;BME280;51986;52.788;41.368;2023-05-09T11:40:32;100343.72;;;17.16;17.19
65384;BME280;51986;52.788;41.368;2023-05-09T11:43:00;100327.94;;;17.61;17.15
65384;BME280;51986;52.788;41.368;2023-05-09T11:45:29;100336.53;;;17.13;17.29
65384;BME280;51986;52.788;41.368;2023-05-09T11:47:57;100334.03;;;16.39;17.92
65384;BME280;51986;52.788;41.368;2023-05-09T11:50:50;100341.50;;;16.48;17.99
65384;BME280;51986;52.788;41.368;2023-05-09T11:53:17;100322.81;;;16.28;18.53
65384;BME280;51986;52.788;41.368;2023-05-09T11:55:44;100321.91;;;16.38;18.00
65384;BME280;51986;52.788;41.368;2023-05-09T11:58:12;100331.63;;;16.21;18.06
65384;BME280;51986;52.788;41.368;2023-05-09T12:00:45;100306.72;;;15.84;18.83
65384;BME280;51986;52.788;41.368;2023-05-09T12:03:12;100309.00;;;16.09;19.24
65384;BME280;51986;52.788;41.368;2023-05-09T12:05:40;100328.56;;;15.99;19.17
65384;BME280;51986;52.788;41.368;2023-05-09T12:08:07;100325.66;;;15.32;19.32
65384;BME280;51986;52.788;41.368;2023-05-09T12:10:38;100323.50;;;15.16;18.74
65384;BME280;51986;52.788;41.368;2023-05-09T12:13:05;100324.72;;;14.74;19.60
65384;BME280;51986;52.788;41.368;2023-05-09T12:15:35;100334.66;;;14.66;19.79
65384;BME280;51986;52.788;41.368;2023-05-09T12:18:05;100328.50;;;14.77;19.41
65384;BME280;51986;52.788;41.368;2023-05-09T12:20:48;100331.09;;;14.84;20.19
65384;BME280;51986;52.788;41.368;2023-05-09T12:23:15;100329.09;;;15.29;18.86
65384;BME280;51986;52.788;41.368;2023-05-09T12:25:53;100307.09;;;15.83;18.57
65384;BME280;51986;52.788;41.368;2023-05-09T12:28:26;100288.56;;;15.18;18.86
65384;BME280;51986;52.788;41.368;2023-05-09T12:30:53;100299.97;;;15.18;19.32
65384;BME280;51986;52.788;41.368;2023-05-09T12:33:20;100271.91;;;15.14;19.49
65384;BME280;51986;52.788;41.368;2023-05-09T12:36:00;100278.25;;;15.27;19.58
65384;BME280;51986;52.788;41.368;2023-05-09T12:38:28;100315.78;;;14.57;19.48
65384;BME280;51986;52.788;41.368;2023-05-09T12:41:10;100293.53;;;14.82;20.35
65384;BME280;51986;52.788;41.368;2023-05-09T12:43:40;100296.91;;;15.20;19.52
65384;BME280;51986;52.788;41.368;2023-05-09T12:46:07;100296.25;;;15.12;19.90
65384;BME280;51986;52.788;41.368;2023-05-09T12:48:36;100290.06;;;15.23;19.59
65384;BME280;51986;52.788;41.368;2023-05-09T12:51:04;100290.84;;;15.50;19.17
65384;BME280;51986;52.788;41.368;2023-05-09T12:53:37;100280.88;;;15.58;18.91
65384;BME280;51986;52.788;41.368;2023-05-09T12:56:11;100280.94;;;15.24;19.37
65384;BME280;51986;52.788;41.368;2023-05-09T12:58:38;100268.38;;;15.55;19.37
65384;BME280;51986;52.788;41.368;2023-05-09T13:01:05;100266.47;;;15.28;19.29
65384;BME280;51986;52.788;41.368;2023-05-09T13:03:33;100268.72;;;15.30;19.18
65384;BME280;51986;52.788;41.368;2023-05-09T13:06:00;100272.34;;;15.43;19.54
65384;BME280;51986;52.788;41.368;2023-05-09T13:08:28;100278.09;;;15.38;19.66
65384;BME280;51986;52.788;41.368;2023-05-09T13:10:55;100256.06;;;14.73;19.47
65384;BME280;51986;52.788;41.368;2023-05-09T13:13:41;100256.53;;;14.64;18.79
65384;BME280;51986;52.788;41.368;2023-05-09T13:16:08;100257.28;;;15.33;19.08
65384;BME280;51986;52.788;41.368;2023-05-09T13:18:37;100242.41;;;15.05;18.41
65384;BME280;51986;52.788;41.368;2023-05-09T13:21:04;100248.72;;;15.49;18.72
65384;BME280;51986;52.788;41.368;2023-05-09T13:23:31;100252.88;;;15.19;18.71
65384;BME280;51986;52.788;41.368;2023-05-09T13:25:58;100265.16;;;15.40;19.42
65384;BME280;51986;52.788;41.368;2023-05-09T13:28:25;100262.69;;;15.26;19.37